Time;durP1;ratioP1;P1;durP2;ratioP2;P2;SDS_P1;SDS_P2;PMS_P1;PMS_P2;Temp;Humidity;BMP_temperature;BMP_pressure;BME280_temperature;BME280_humidity;BME280_pressure;Samples;Min_cycle;Max_cycle;Signal;HPM_P1;HPM_P2
2021/01/24 04:30:17;;;;;;;3.37;3.07;;;;;;;6.11;52.69;96852.47;8310406;23;20549;31
2021/01/24 04:33:38;;;;;;;3.53;3.23;;;;;;;6.11;52.84;96868.50;6778019;29;20274;-80
2021/01/24 04:36:59;;;;;;;3.50;3.20;;;;;;;6.40;52.38;96869.56;6767676;29;20212;-80
2021/01/24 04:40:20;;;;;;;3.87;3.53;;;;;;;6.61;52.27;96872.56;6792673;29;20213;-80
2021/01/24 04:43:41;;;;;;;3.60;3.30;;;;;;;6.26;53.35;96874.28;6818354;29;20655;-80
2021/01/24 04:47:05;;;;;;;3.60;3.20;;;;;;;6.75;52.57;96884.75;6819099;29;20217;-80
2021/01/24 04:50:26;;;;;;;5.87;4.33;;;;;;;6.72;52.90;96874.47;6817171;29;20266;-79
2021/01/24 04:53:48;;;;;;;3.70;3.20;;;;;;;7.05;51.77;96890.06;6818689;29;20218;-80
2021/01/24 04:57:10;;;;;;;3.60;3.10;;;;;;;6.56;52.20;96879.66;6818263;29;20215;-80
2021/01/24 05:00:31;;;;;;;3.37;3.07;;;;;;;6.61;51.70;96896.66;6817716;29;20229;-79
2021/01/24 05:03:53;;;;;;;3.77;3.00;;;;;;;6.36;52.40;96903.22;6818562;29;20565;-80
2021/01/24 05:07:14;;;;;;;3.27;3.03;;;;;;;6.26;50.81;96897.56;6818653;29;20246;-78
2021/01/24 05:10:35;;;;;;;3.53;3.23;;;;;;;6.29;50.34;96899.75;6819354;29;20234;-79
2021/01/24 05:14:13;;;;;;;3.50;3.20;;;;;;;6.37;49.59;96892.25;6818677;29;20208;-79
2021/01/24 05:17:34;;;;;;;3.40;3.10;;;;;;;6.16;49.25;96911.47;6820113;29;20212;-80
2021/01/24 05:20:57;;;;;;;2.93;2.73;;;;;;;6.26;48.77;96902.91;6819581;29;20558;-79
2021/01/24 05:24:20;;;;;;;3.00;2.80;;;;;;;5.58;48.79;96914.69;6821144;29;20221;-79
2021/01/24 05:27:41;;;;;;;3.30;3.00;;;;;;;5.00;49.29;96899.97;6821736;29;20212;-79
2021/01/24 05:31:02;;;;;;;3.83;3.07;;;;;;;5.62;47.78;96929.25;6819946;29;20240;-79
2021/01/24 05:34:24;;;;;;;2.80;2.60;;;;;;;5.45;48.26;96898.78;6822068;29;20230;-79
2021/01/24 05:37:47;;;;;;;3.43;3.10;;;;;;;5.60;48.24;96947.38;6821728;29;20228;-79
2021/01/24 05:41:09;;;;;;;3.50;3.20;;;;;;;5.85;48.39;96942.84;6815674;29;20328;-80
2021/01/24 05:44:30;;;;;;;4.07;3.27;;;;;;;5.64;49.57;96961.94;6816344;29;20264;-80
2021/01/24 05:47:52;;;;;;;3.70;3.40;;;;;;;5.62;50.07;96958.66;6815984;29;20223;-80
2021/01/24 05:51:14;;;;;;;3.40;3.20;;;;;;;6.06;48.82;96951.28;6814424;29;20245;-80
2021/01/24 05:54:41;;;;;;;4.67;3.30;;;;;;;5.68;50.65;96965.81;6815138;29;20233;-80
2021/01/24 05:58:15;;;;;;;4.63;3.27;;;;;;;5.51;51.28;96970.06;6814762;29;20200;-80
2021/01/24 06:01:36;;;;;;;4.20;3.90;;;;;;;5.56;52.16;96978.25;6814249;29;20242;-80
2021/01/24 06:04:57;;;;;;;5.20;3.60;;;;;;;5.81;51.30;96977.25;6815916;29;20213;-80
2021/01/24 06:08:18;;;;;;;3.83;3.43;;;;;;;5.73;50.96;96977.47;6815289;29;20586;-80
2021/01/24 06:11:40;;;;;;;3.50;3.20;;;;;;;5.06;52.00;96965.84;6815030;29;20241;-80
2021/01/24 06:15:03;;;;;;;5.57;3.30;;;;;;;5.06;51.57;96945.31;6814799;29;20220;-80
2021/01/24 06:18:36;;;;;;;3.33;3.10;;;;;;;5.60;50.09;96988.28;6813664;29;20882;-80
2021/01/24 06:21:58;;;;;;;4.43;3.27;;;;;;;6.02;48.91;97000.88;6812759;29;20242;-80
2021/01/24 06:25:22;;;;;;;4.10;3.80;;;;;;;5.72;49.49;96997.22;6813300;29;20223;-80
2021/01/24 06:28:45;;;;;;;3.73;3.43;;;;;;;5.65;49.45;96993.78;6813910;29;20268;-80
2021/01/24 06:32:07;;;;;;;3.97;3.43;;;;;;;5.15;51.34;96994.78;6813957;29;20247;-80
2021/01/24 06:35:28;;;;;;;4.00;3.60;;;;;;;5.34;51.14;97017.06;6814367;29;20217;-80
2021/01/24 06:38:53;;;;;;;5.80;3.93;;;;;;;5.47;51.12;97025.81;6817247;29;20207;-80
2021/01/24 06:42:35;;;;;;;4.80;4.03;;;;;;;5.74;51.55;97021.91;6814864;29;20226;-80
2021/01/24 06:45:59;;;;;;;6.77;3.70;;;;;;;5.37;51.89;97011.28;6815886;29;20263;-80
2021/01/24 06:49:39;;;;;;;4.20;3.80;;;;;;;5.40;51.86;97045.59;6814484;29;20205;-80
2021/01/24 06:53:02;;;;;;;4.97;4.20;;;;;;;5.68;51.80;97038.00;6819976;29;20235;-80
2021/01/24 06:56:26;;;;;;;5.10;4.10;;;;;;;5.78;51.23;97041.00;6821187;29;20213;-79
2021/01/24 06:59:47;;;;;;;4.53;4.13;;;;;;;5.56;51.92;97040.56;6820161;29;20237;-79
2021/01/24 07:03:19;;;;;;;4.10;3.70;;;;;;;5.53;51.72;97032.94;6821744;29;20230;-80
2021/01/24 07:06:40;;;;;;;5.17;3.90;;;;;;;5.67;50.76;97052.41;6821559;29;20697;-79
2021/01/24 07:10:03;;;;;;;5.10;4.13;;;;;;;5.10;51.40;97040.00;6820413;29;20684;-80
2021/01/24 07:13:35;;;;;;;4.17;3.77;;;;;;;5.48;50.65;97054.16;6821563;29;20243;-80
2021/01/24 07:16:56;;;;;;;3.50;3.27;;;;;;;5.67;50.46;97053.19;6819552;29;20585;-80
2021/01/24 07:20:18;;;;;;;3.97;3.60;;;;;;;5.71;50.34;97065.09;6819474;29;20222;-80
2021/01/24 07:23:43;;;;;;;4.10;3.63;;;;;;;5.77;49.40;97063.44;6820171;29;20209;-80
2021/01/24 07:27:07;;;;;;;5.60;3.60;;;;;;;5.48;49.70;97062.19;6819317;29;20213;-80
2021/01/24 07:30:28;;;;;;;4.20;3.80;;;;;;;5.10;50.63;97061.38;6818332;29;20212;-80
2021/01/24 07:33:49;;;;;;;4.13;3.63;;;;;;;5.28;50.84;97076.69;6820129;29;20237;-80
2021/01/24 07:37:13;;;;;;;5.07;3.37;;;;;;;5.23;51.02;97082.69;6821006;29;20220;-79
2021/01/24 07:40:34;;;;;;;4.10;3.70;;;;;;;6.00;49.71;97093.91;6821228;29;20230;-80
2021/01/24 07:43:56;;;;;;;4.93;3.80;;;;;;;5.84;49.88;97083.75;6820102;29;20209;-80
2021/01/24 07:47:17;;;;;;;6.10;3.63;;;;;;;5.86;49.17;97084.38;6821416;29;20661;-80
2021/01/24 07:50:38;;;;;;;4.43;4.03;;;;;;;6.25;48.78;97083.22;6819974;29;20299;-80
2021/01/24 07:54:01;;;;;;;4.10;3.80;;;;;;;6.10;49.35;97072.03;6820094;29;20289;-80
2021/01/24 07:57:22;;;;;;;4.17;3.67;;;;;;;6.08;50.11;97079.47;6820468;29;20220;-80
2021/01/24 08:00:43;;;;;;;5.40;4.07;;;;;;;5.72;50.91;97090.00;6819751;29;20232;-79
2021/01/24 08:04:05;;;;;;;5.83;3.63;;;;;;;6.29;49.67;97089.75;6819686;29;20243;-79
2021/01/24 08:07:28;;;;;;;3.77;3.47;;;;;;;6.52;48.46;97098.81;6820231;29;20220;-81
2021/01/24 08:10:50;;;;;;;4.37;3.37;;;;;;;6.00;49.40;97103.78;6819584;29;20239;-80
2021/01/24 08:14:12;;;;;;;3.80;3.50;;;;;;;6.16;48.46;97100.56;6819872;29;20213;-81
2021/01/24 08:17:34;;;;;;;4.40;3.93;;;;;;;6.10;49.70;97117.50;6819555;29;20624;-80
2021/01/24 08:20:56;;;;;;;4.30;3.70;;;;;;;6.05;48.85;97110.13;6819329;29;20605;-80
2021/01/24 08:24:17;;;;;;;4.70;3.87;;;;;;;6.09;48.82;97110.50;6820066;29;20219;-80
2021/01/24 08:27:39;;;;;;;3.60;3.30;;;;;;;5.49;49.84;97097.75;6819487;29;20210;-81
2021/01/24 08:31:01;;;;;;;3.50;3.27;;;;;;;5.92;48.73;97112.91;6819447;29;20237;-80
2021/01/24 08:34:22;;;;;;;3.87;3.57;;;;;;;5.90;49.34;97112.28;6826032;29;20582;-81
2021/01/24 08:37:43;;;;;;;3.60;3.30;;;;;;;6.12;48.13;97115.41;6827291;29;20209;-80
2021/01/24 08:41:05;;;;;;;3.97;3.60;;;;;;;6.54;48.13;97115.44;6827174;29;20236;-80
2021/01/24 08:44:27;;;;;;;5.80;3.70;;;;;;;6.53;47.09;97079.03;6828336;29;20213;-80
2021/01/24 08:47:53;;;;;;;4.57;3.90;;;;;;;7.12;46.38;97094.41;6827935;29;20216;-80
2021/01/24 08:51:14;;;;;;;3.70;3.40;;;;;;;8.89;41.51;97119.13;6825593;29;20257;-80
2021/01/24 08:54:36;;;;;;;3.60;3.30;;;;;;;10.20;38.35;97086.50;6821375;29;20224;-80
2021/01/24 08:57:57;;;;;;;4.47;4.07;;;;;;;11.16;37.32;97138.09;6820935;29;20226;-80
2021/01/24 09:01:19;;;;;;;4.07;3.73;;;;;;;11.17;36.58;97133.53;6818996;29;20305;-80
2021/01/24 09:04:45;;;;;;;3.90;3.00;;;;;;;9.57;39.44;97147.72;6820016;29;20206;-80
2021/01/24 09:08:06;;;;;;;3.83;3.20;;;;;;;7.85;43.39;97147.66;6820358;29;20632;-80
2021/01/24 09:11:28;;;;;;;6.90;3.97;;;;;;;6.97;45.66;97163.63;6818766;29;20238;-80
2021/01/24 09:14:51;;;;;;;3.40;3.10;;;;;;;6.51;47.08;97171.28;6819280;29;20245;-80
2021/01/24 09:18:14;;;;;;;3.50;3.10;;;;;;;6.93;46.59;97165.94;6820007;29;20216;-80
2021/01/24 09:21:35;;;;;;;4.73;4.33;;;;;;;6.35;47.96;97179.84;6819495;29;20275;-80
2021/01/24 09:24:56;;;;;;;4.00;3.53;;;;;;;6.19;49.00;97175.06;6820300;29;20238;-80
2021/01/24 09:28:17;;;;;;;3.63;3.33;;;;;;;6.13;48.18;97173.25;6820589;29;20210;-79
2021/01/24 09:31:38;;;;;;;3.30;3.00;;;;;;;6.04;49.20;97187.91;6820350;29;20250;-80
2021/01/24 09:35:00;;;;;;;3.83;3.50;;;;;;;5.82;50.08;97157.19;6822026;29;20238;-80
2021/01/24 09:38:24;;;;;;;3.70;3.37;;;;;;;6.04;50.72;97190.59;6826427;29;20361;-80
2021/01/24 09:41:45;;;;;;;4.00;3.70;;;;;;;5.53;52.52;97177.28;6818702;29;20228;-80
2021/01/24 09:45:10;;;;;;;3.40;3.10;;;;;;;5.70;53.29;97186.44;6818401;29;20268;-80
2021/01/24 09:48:31;;;;;;;4.03;3.60;;;;;;;6.09;52.58;97172.88;6818489;29;20210;-80
2021/01/24 09:51:53;;;;;;;6.27;4.43;;;;;;;6.22;52.77;97185.31;6817808;29;20237;-80
2021/01/24 09:55:14;;;;;;;4.67;3.63;;;;;;;6.42;53.16;97210.09;6817787;29;20216;-80
2021/01/24 09:58:36;;;;;;;6.10;3.90;;;;;;;5.79;55.29;97208.41;6816883;29;20693;-80
2021/01/24 10:01:57;;;;;;;3.80;3.50;;;;;;;6.05;55.77;97211.78;6816579;29;20231;-80
2021/01/24 10:05:18;;;;;;;4.00;3.70;;;;;;;6.10;55.57;97224.50;6817818;29;20212;-80
2021/01/24 10:08:40;;;;;;;3.53;3.10;;;;;;;6.16;54.66;97215.63;6817132;29;20216;-80
2021/01/24 10:12:01;;;;;;;4.53;4.00;;;;;;;5.91;55.50;97225.44;6808180;29;20578;-78
2021/01/24 10:15:25;;;;;;;4.30;3.87;;;;;;;6.27;54.99;97218.44;6808484;29;20578;-78
2021/01/24 10:18:46;;;;;;;4.10;3.70;;;;;;;5.99;55.15;97207.28;6808336;29;20216;-78
2021/01/24 10:22:07;;;;;;;6.47;3.90;;;;;;;6.14;55.22;97231.88;6815707;29;20593;-80
2021/01/24 10:25:29;;;;;;;3.70;3.40;;;;;;;6.37;54.03;97199.22;6818952;29;20256;-80
2021/01/24 10:28:51;;;;;;;4.60;3.77;;;;;;;6.17;55.13;97225.28;6822491;29;20219;-80
2021/01/24 10:32:12;;;;;;;4.10;3.70;;;;;;;6.83;54.32;97223.75;6818989;29;20238;-80
2021/01/24 10:35:33;;;;;;;4.83;4.30;;;;;;;6.41;55.04;97216.47;6821902;29;20246;-80
2021/01/24 10:38:54;;;;;;;4.30;4.00;;;;;;;6.50;54.82;97232.06;6822700;29;20368;-80
2021/01/24 10:42:16;;;;;;;4.20;3.80;;;;;;;7.24;53.55;97234.69;6823448;29;20245;-80
2021/01/24 10:45:38;;;;;;;4.17;3.77;;;;;;;7.36;52.33;97233.69;6822272;29;20221;-80
2021/01/24 10:49:01;;;;;;;5.97;4.73;;;;;;;7.21;52.73;97227.91;6822958;29;20216;-81
2021/01/24 10:52:22;;;;;;;4.67;4.20;;;;;;;7.13;52.56;97220.13;6821589;29;20237;-80
2021/01/24 10:55:43;;;;;;;3.67;3.37;;;;;;;7.10;51.49;97230.47;6822498;29;20221;-80
2021/01/24 10:59:08;;;;;;;8.17;5.97;;;;;;;6.84;51.76;97207.44;6822452;29;20218;-80
2021/01/24 11:02:29;;;;;;;6.10;4.90;;;;;;;7.30;50.47;97229.22;6820833;29;20241;-80
2021/01/24 11:05:50;;;;;;;12.77;7.07;;;;;;;7.34;49.00;97221.56;6821291;29;20210;-81
2021/01/24 11:09:11;;;;;;;3.87;3.50;;;;;;;7.02;48.09;97231.56;6817114;29;20209;-80
2021/01/24 11:12:35;;;;;;;3.40;3.10;;;;;;;7.31;48.04;97238.91;6799565;29;20233;-81
2021/01/24 11:15:57;;;;;;;3.60;3.30;;;;;;;6.98;45.96;97234.94;6794856;29;20213;-80
2021/01/24 11:19:18;;;;;;;3.63;2.93;;;;;;;7.14;45.80;97245.09;6795473;29;20214;-80
2021/01/24 11:22:39;;;;;;;5.80;2.90;;;;;;;6.61;46.00;97247.38;6794542;29;20261;-80
2021/01/24 11:26:00;;;;;;;4.13;3.03;;;;;;;6.70;46.15;97232.72;6799191;29;20216;-80
2021/01/24 11:29:22;;;;;;;3.10;2.90;;;;;;;7.02;45.78;97246.84;6821146;29;20374;-80
2021/01/24 11:32:44;;;;;;;4.03;2.77;;;;;;;7.08;44.75;97230.69;6820355;29;20230;-80
2021/01/24 11:36:20;;;;;;;4.00;2.93;;;;;;;7.38;43.78;97225.44;6819757;29;20595;-80
2021/01/24 11:39:41;;;;;;;4.07;3.60;;;;;;;7.28;44.05;97258.13;6739371;29;20212;-80
2021/01/24 11:43:02;;;;;;;9.10;6.03;;;;;;;7.74;43.27;97247.72;6740006;29;20238;-80
2021/01/24 11:46:23;;;;;;;11.13;5.97;;;;;;;6.73;43.88;97242.16;6739213;29;20561;-80
2021/01/24 11:49:45;;;;;;;2.93;2.73;;;;;;;7.13;43.69;97254.97;6702374;29;20216;-80
2021/01/24 11:53:06;;;;;;;2.70;2.50;;;;;;;6.94;43.98;97258.66;6690703;29;20238;-80
2021/01/24 11:56:27;;;;;;;3.77;2.53;;;;;;;6.78;45.18;97261.88;6714751;29;20251;-80
2021/01/24 11:59:49;;;;;;;3.93;3.33;;;;;;;7.35;44.92;97256.19;6714929;29;20210;-80
2021/01/24 12:03:10;;;;;;;2.70;2.50;;;;;;;7.42;44.32;97262.31;6715513;29;20241;-80
2021/01/24 12:06:34;;;;;;;4.33;3.17;;;;;;;7.41;44.33;97258.00;6703873;29;20211;-80
2021/01/24 12:09:55;;;;;;;3.40;3.10;;;;;;;7.36;43.96;97249.78;6689235;29;20214;-80
2021/01/24 12:13:16;;;;;;;4.80;3.53;;;;;;;7.45;44.60;97274.44;6690263;29;20246;-80
2021/01/24 12:16:40;;;;;;;3.73;3.20;;;;;;;7.72;43.66;97273.13;6754162;29;20205;-80
2021/01/24 12:20:01;;;;;;;3.80;2.80;;;;;;;7.38;44.39;97274.50;6800005;29;20297;-80
2021/01/24 12:23:23;;;;;;;3.60;3.17;;;;;;;6.68;45.23;97260.75;6808618;29;20240;-80
2021/01/24 12:26:45;;;;;;;4.13;3.40;;;;;;;7.31;45.02;97275.63;6808952;29;20247;-81
2021/01/24 12:30:09;;;;;;;3.60;3.10;;;;;;;6.74;45.88;97275.94;6807939;29;20238;-80
2021/01/24 12:33:30;;;;;;;4.40;4.00;;;;;;;6.80;45.51;97273.22;6808326;29;20239;-81
2021/01/24 12:36:52;;;;;;;4.33;2.90;;;;;;;6.89;46.09;97273.75;6797941;29;20203;-80
2021/01/24 12:40:14;;;;;;;3.23;2.93;;;;;;;6.80;45.67;97283.09;6784695;29;20264;-79
2021/01/24 12:43:36;;;;;;;3.77;3.47;;;;;;;6.68;45.97;97295.56;6784670;29;20214;-79
2021/01/24 12:46:57;;;;;;;3.73;3.00;;;;;;;6.48;46.31;97300.22;6784950;29;20204;-79
2021/01/24 12:50:19;;;;;;;4.03;3.30;;;;;;;6.89;45.09;97313.94;6784671;29;20213;-79
2021/01/24 12:53:40;;;;;;;4.83;3.87;;;;;;;6.50;45.23;97311.53;6784472;29;20316;-79
2021/01/24 12:57:02;;;;;;;4.47;3.77;;;;;;;6.62;45.77;97299.94;6785195;29;20218;-79
2021/01/24 13:00:24;;;;;;;3.60;3.27;;;;;;;6.52;46.08;97310.28;6784715;29;20231;-79
2021/01/24 13:03:45;;;;;;;4.80;3.63;;;;;;;6.27;45.66;97271.94;6785753;29;20309;-79
2021/01/24 13:07:07;;;;;;;3.97;3.50;;;;;;;6.65;44.35;97315.53;6795009;29;20251;-79
2021/01/24 13:10:28;;;;;;;4.23;3.73;;;;;;;6.77;44.53;97311.13;6795727;29;20203;-79
2021/01/24 13:13:52;;;;;;;5.50;3.07;;;;;;;7.13;44.69;97313.94;6790679;29;20238;-79
2021/01/24 13:17:13;;;;;;;3.10;2.90;;;;;;;6.97;44.30;97317.19;6799178;29;20213;-79
2021/01/24 13:20:34;;;;;;;4.67;3.30;;;;;;;7.11;44.13;97325.91;6789176;29;20281;-79
2021/01/24 13:23:55;;;;;;;3.77;3.07;;;;;;;6.47;44.68;97315.47;6782676;29;20263;-79
2021/01/24 13:27:16;;;;;;;5.97;3.00;;;;;;;6.91;44.19;97290.44;6797450;29;20544;-79
2021/01/24 13:30:39;;;;;;;3.17;2.87;;;;;;;6.92;44.55;97308.97;6808918;29;20239;-79
2021/01/24 13:34:00;;;;;;;3.40;3.13;;;;;;;7.04;43.41;97319.78;6810205;29;20217;-79
2021/01/24 13:37:21;;;;;;;3.20;2.73;;;;;;;6.95;43.73;97321.09;6809659;29;20584;-79
2021/01/24 13:40:43;;;;;;;7.20;3.03;;;;;;;6.95;43.44;97331.81;6808499;29;20247;-79
2021/01/24 13:44:05;;;;;;;3.10;2.90;;;;;;;6.83;43.63;97336.25;6809585;29;20742;-79
2021/01/24 13:47:27;;;;;;;3.20;2.90;;;;;;;6.62;44.08;97329.38;6809475;29;20586;-79
2021/01/24 13:50:48;;;;;;;2.97;2.77;;;;;;;6.67;44.77;97348.28;6808526;29;20669;-79
2021/01/24 13:54:09;;;;;;;3.50;2.90;;;;;;;6.25;43.29;97350.81;6809049;29;20243;-79
2021/01/24 13:57:30;;;;;;;5.40;4.90;;;;;;;6.59;43.22;97345.03;6809192;29;20217;-79
2021/01/24 14:00:52;;;;;;;5.27;4.77;;;;;;;6.37;43.38;97316.97;6807156;29;20237;-79
2021/01/24 14:04:14;;;;;;;5.57;4.83;;;;;;;6.65;43.61;97360.22;6808837;29;20212;-79
2021/01/24 14:07:35;;;;;;;8.27;5.43;;;;;;;6.31;43.32;97293.75;6808575;29;20221;-79
2021/01/24 14:10:56;;;;;;;5.73;4.77;;;;;;;6.75;43.51;97356.06;6807677;29;20247;-79
2021/01/24 14:14:17;;;;;;;3.30;3.00;;;;;;;6.32;43.46;97309.56;6808362;29;20264;-79
2021/01/24 14:17:39;;;;;;;4.13;3.50;;;;;;;6.57;43.87;97323.84;6808866;29;20202;-78
2021/01/24 14:21:02;;;;;;;3.73;3.07;;;;;;;7.43;42.57;97344.38;6808463;29;20237;-79
2021/01/24 14:24:23;;;;;;;3.67;3.00;;;;;;;7.12;42.44;97354.34;6808918;29;20563;-79
2021/01/24 14:27:45;;;;;;;4.20;3.10;;;;;;;7.45;42.58;97350.34;6808872;29;20211;-79
2021/01/24 14:31:07;;;;;;;4.30;3.37;;;;;;;7.14;43.53;97344.22;6807910;29;20242;-79
2021/01/24 14:34:28;;;;;;;4.20;3.80;;;;;;;7.40;42.44;97344.81;6823431;29;20579;-80
2021/01/24 14:37:50;;;;;;;3.70;3.40;;;;;;;7.75;42.75;97347.75;6809857;29;20220;-79
2021/01/24 14:41:11;;;;;;;4.43;2.80;;;;;;;7.68;42.62;97352.38;6808200;29;20221;-79
2021/01/24 14:44:32;;;;;;;3.67;3.33;;;;;;;7.34;43.15;97352.91;6809082;29;20209;-79
2021/01/24 14:47:54;;;;;;;3.50;3.20;;;;;;;7.86;41.99;97357.75;6808406;29;20636;-79
2021/01/24 14:51:15;;;;;;;4.07;3.23;;;;;;;7.29;42.77;97363.47;6808143;29;20609;-79
2021/01/24 14:54:37;;;;;;;3.63;3.30;;;;;;;7.57;42.50;97366.53;6808310;29;20722;-79
2021/01/24 14:57:58;;;;;;;4.43;3.70;;;;;;;7.15;42.96;97370.00;6808425;29;20213;-79
2021/01/24 15:01:19;;;;;;;4.60;3.43;;;;;;;7.23;42.92;97357.13;6807564;29;20240;-79
2021/01/24 15:04:40;;;;;;;3.97;3.07;;;;;;;7.34;43.12;97377.88;6808488;29;20213;-80
2021/01/24 15:08:01;;;;;;;4.70;3.53;;;;;;;7.86;42.80;97368.50;6808004;29;20212;-79
2021/01/24 15:11:24;;;;;;;3.60;3.30;;;;;;;7.37;43.44;97374.75;6807577;29;20299;-79
2021/01/24 15:14:45;;;;;;;6.77;3.97;;;;;;;7.56;43.29;97370.25;6813596;29;20224;-79
2021/01/24 15:18:07;;;;;;;3.63;3.27;;;;;;;7.13;44.39;97369.41;6813550;29;20218;-79
2021/01/24 15:21:29;;;;;;;3.90;3.40;;;;;;;7.36;43.66;97370.41;6812288;29;20230;-80
2021/01/24 15:24:50;;;;;;;5.20;3.17;;;;;;;7.36;43.34;97366.94;6813315;29;20553;-79
2021/01/24 15:28:12;;;;;;;8.03;7.20;;;;;;;7.48;43.68;97376.69;6812426;29;20210;-80
2021/01/24 15:31:33;;;;;;;5.23;4.00;;;;;;;7.32;43.41;97358.47;6812080;29;20271;-79
2021/01/24 15:34:54;;;;;;;3.60;3.30;;;;;;;7.51;43.57;97364.72;6812779;29;20209;-79
2021/01/24 15:38:15;;;;;;;6.93;5.20;;;;;;;7.67;43.56;97375.69;6812359;29;20217;-79
2021/01/24 15:41:37;;;;;;;6.73;4.17;;;;;;;7.92;43.15;97383.69;6812008;29;20237;-79
2021/01/24 15:45:00;;;;;;;5.73;3.60;;;;;;;7.51;43.67;97333.38;6812599;29;20217;-79
2021/01/24 15:48:21;;;;;;;5.13;4.33;;;;;;;7.70;43.20;97374.44;6812610;29;20372;-79
2021/01/24 15:51:42;;;;;;;5.30;4.10;;;;;;;7.83;43.69;97369.75;6812011;29;20232;-80
2021/01/24 15:55:04;;;;;;;3.60;3.30;;;;;;;7.29;43.44;97347.38;6812462;29;20212;-80
2021/01/24 15:58:25;;;;;;;4.43;3.57;;;;;;;7.76;43.10;97387.78;6812162;29;20210;-79
2021/01/24 16:01:47;;;;;;;8.27;4.80;;;;;;;7.90;43.36;97385.78;6811624;29;20256;-79
2021/01/24 16:05:09;;;;;;;10.20;5.50;;;;;;;7.81;43.38;97371.84;6812502;29;20216;-80
2021/01/24 16:08:30;;;;;;;6.63;4.33;;;;;;;7.45;44.41;97376.31;6812731;29;20294;-79
2021/01/24 16:11:52;;;;;;;30.33;13.33;;;;;;;7.64;43.73;97372.63;6811947;29;20266;-80
2021/01/24 16:15:15;;;;;;;12.60;7.90;;;;;;;7.77;44.12;97384.06;6812844;29;20782;-79
2021/01/24 16:18:38;;;;;;;10.07;7.47;;;;;;;7.36;44.30;97351.66;6813189;29;20671;-79
2021/01/24 16:22:00;;;;;;;10.20;6.63;;;;;;;7.75;44.60;97385.31;6810941;29;20709;-79
2021/01/24 16:25:21;;;;;;;11.47;7.27;;;;;;;7.95;44.09;97385.94;6811603;29;20257;-80
2021/01/24 16:28:42;;;;;;;10.97;6.47;;;;;;;8.11;43.80;97388.84;6812131;29;20221;-79
2021/01/24 16:32:04;;;;;;;11.80;8.97;;;;;;;8.05;43.77;97394.28;6809066;29;20244;-79
2021/01/24 16:35:26;;;;;;;6.73;5.20;;;;;;;8.05;44.08;97402.34;6812072;29;20202;-79
2021/01/24 16:38:48;;;;;;;4.23;3.80;;;;;;;8.23;43.99;97387.09;6811971;29;20688;-79
2021/01/24 16:42:09;;;;;;;13.67;6.70;;;;;;;7.92;45.18;97400.63;6810377;29;20230;-79
2021/01/24 16:45:30;;;;;;;19.90;11.27;;;;;;;7.51;46.49;97392.38;6811633;29;20209;-80
2021/01/24 16:48:52;;;;;;;21.93;10.87;;;;;;;7.68;46.56;97390.75;6811152;29;20224;-78
2021/01/24 16:52:14;;;;;;;22.90;13.97;;;;;;;7.63;47.09;97395.13;6810470;29;20683;-79
2021/01/24 16:55:35;;;;;;;14.17;8.73;;;;;;;7.75;46.31;97404.09;6811645;29;20221;-79
2021/01/24 16:58:56;;;;;;;5.20;4.73;;;;;;;7.86;45.33;97388.09;6811996;29;20684;-79
2021/01/24 17:02:17;;;;;;;4.40;4.00;;;;;;;7.31;46.58;97377.50;6811859;29;20587;-79
2021/01/24 17:05:38;;;;;;;5.90;4.37;;;;;;;7.25;47.07;97410.53;6810632;29;20217;-79
2021/01/24 17:09:01;;;;;;;7.77;5.77;;;;;;;7.18;46.24;97346.25;6810524;29;20214;-79
2021/01/24 17:12:22;;;;;;;5.90;4.67;;;;;;;7.66;46.32;97403.56;6820099;29;20293;-80
2021/01/24 17:15:43;;;;;;;5.73;4.53;;;;;;;6.92;47.68;97401.91;6810226;29;20220;-79
2021/01/24 17:19:04;;;;;;;5.60;4.43;;;;;;;7.51;46.76;97396.91;6809951;29;20687;-79
2021/01/24 17:22:25;;;;;;;7.77;5.50;;;;;;;7.77;46.05;97408.19;6809397;29;20356;-79
2021/01/24 17:25:48;;;;;;;7.63;6.03;;;;;;;7.55;47.52;97382.81;6810630;29;21005;-80
2021/01/24 17:29:09;;;;;;;6.00;5.40;;;;;;;6.99;48.86;97354.44;6810478;29;20686;-79
2021/01/24 17:32:30;;;;;;;8.00;5.43;;;;;;;7.56;47.89;97389.84;6809205;29;20277;-79
2021/01/24 17:35:51;;;;;;;9.30;6.87;;;;;;;7.62;47.50;97388.13;6808867;29;20218;-79
2021/01/24 17:39:13;;;;;;;8.50;6.73;;;;;;;6.52;47.68;97215.75;6809942;29;20225;-79
2021/01/24 17:42:35;;;;;;;8.13;6.50;;;;;;;7.38;48.18;97371.00;6809448;29;20588;-79
2021/01/24 17:45:56;;;;;;;8.60;6.33;;;;;;;7.45;48.30;97376.31;6810189;29;20689;-79
2021/01/24 17:49:17;;;;;;;10.63;7.07;;;;;;;7.21;48.22;97371.78;6809714;29;20212;-79
2021/01/24 17:52:38;;;;;;;11.70;6.97;;;;;;;6.48;48.86;97338.50;6809072;29;20241;-79
2021/01/24 17:55:59;;;;;;;10.03;7.50;;;;;;;6.82;49.23;97348.81;6809054;29;20213;-79
2021/01/24 17:59:21;;;;;;;19.27;8.87;;;;;;;7.16;49.02;97374.31;6809194;29;20232;-79
2021/01/24 18:02:42;;;;;;;10.03;6.80;;;;;;;6.89;49.28;97370.19;6808405;29;20230;-79
2021/01/24 18:06:04;;;;;;;13.37;7.83;;;;;;;6.95;49.45;97363.97;6808987;29;20210;-79
2021/01/24 18:09:27;;;;;;;8.40;7.07;;;;;;;6.91;49.64;97365.44;6809015;29;20218;-79
2021/01/24 18:12:48;;;;;;;9.50;6.93;;;;;;;6.36;50.66;97363.50;6807747;29;20248;-79
2021/01/24 18:16:10;;;;;;;8.40;5.83;;;;;;;6.57;50.36;97365.84;6808552;29;20220;-80
2021/01/24 18:19:32;;;;;;;10.60;5.83;;;;;;;6.52;50.52;97371.88;6807831;29;20220;-79
2021/01/24 18:22:53;;;;;;;9.43;6.57;;;;;;;6.67;49.22;97366.22;6807995;29;20229;-79
2021/01/24 18:26:14;;;;;;;6.47;5.27;;;;;;;6.52;49.33;97361.16;6808282;29;20212;-79
2021/01/24 18:29:35;;;;;;;6.67;4.73;;;;;;;5.99;50.02;97351.72;6808526;29;20303;-79
2021/01/24 18:32:57;;;;;;;13.03;7.23;;;;;;;6.28;49.37;97350.38;6807057;29;20236;-80
2021/01/24 18:36:19;;;;;;;8.50;5.60;;;;;;;6.40;48.86;97345.97;6808341;29;20208;-79
2021/01/24 18:39:40;;;;;;;6.17;4.47;;;;;;;6.10;49.45;97343.03;6807871;29;20208;-79
2021/01/24 18:43:01;;;;;;;5.83;4.03;;;;;;;6.11;49.33;97336.66;6807551;29;20232;-79
2021/01/24 18:46:24;;;;;;;4.80;4.33;;;;;;;6.09;49.23;97341.41;6810070;29;20220;-79
2021/01/24 18:49:46;;;;;;;4.67;4.17;;;;;;;6.12;48.92;97332.09;6812005;29;20224;-79
2021/01/24 18:53:07;;;;;;;6.00;4.90;;;;;;;5.66;49.99;97329.59;6812269;29;20243;-79
2021/01/24 18:56:28;;;;;;;5.93;5.20;;;;;;;5.92;49.95;97329.53;6812717;29;20245;-79
2021/01/24 18:59:50;;;;;;;10.57;5.00;;;;;;;5.77;49.96;97320.91;6812257;29;20239;-79
2021/01/24 19:03:15;;;;;;;4.10;3.43;;;;;;;5.82;50.17;97326.50;6811965;29;20232;-80
2021/01/24 19:06:37;;;;;;;7.00;4.40;;;;;;;5.82;49.60;97302.41;6812339;29;20234;-79
2021/01/24 19:09:59;;;;;;;6.90;4.73;;;;;;;5.66;49.86;97331.44;6811982;29;20219;-80
2021/01/24 19:13:20;;;;;;;8.50;6.03;;;;;;;5.53;50.12;97326.94;6812178;29;20228;-79
2021/01/24 19:16:42;;;;;;;8.70;5.97;;;;;;;5.75;49.71;97341.72;6812608;29;20621;-79
2021/01/24 19:20:04;;;;;;;8.13;5.77;;;;;;;5.62;50.56;97327.53;6811997;29;20223;-79
2021/01/24 19:23:27;;;;;;;8.40;6.57;;;;;;;5.56;49.83;97323.88;6812025;29;20236;-80
2021/01/24 19:27:03;;;;;;;6.43;4.87;;;;;;;5.67;49.83;97331.22;6811627;29;20215;-79
2021/01/24 19:30:24;;;;;;;5.33;4.50;;;;;;;5.39;50.20;97330.69;6808140;29;20220;-79
2021/01/24 19:33:45;;;;;;;5.77;4.40;;;;;;;5.45;51.02;97345.91;6811463;29;20228;-79
2021/01/24 19:37:06;;;;;;;5.70;3.97;;;;;;;5.51;50.62;97325.50;6811966;29;20266;-79
2021/01/24 19:40:31;;;;;;;7.33;3.80;;;;;;;5.62;50.51;97338.25;6810928;29;20212;-79
2021/01/24 19:43:52;;;;;;;5.70;4.37;;;;;;;5.57;50.01;97313.97;6812700;29;20216;-80
2021/01/24 19:47:14;;;;;;;6.43;5.03;;;;;;;5.16;51.39;97327.63;6811791;29;20619;-79
2021/01/24 19:50:35;;;;;;;6.43;5.20;;;;;;;5.56;50.86;97336.41;6810721;29;20232;-79
2021/01/24 19:53:56;;;;;;;7.43;4.97;;;;;;;5.45;51.22;97337.03;6811468;29;20231;-79
2021/01/24 19:57:18;;;;;;;7.77;5.60;;;;;;;5.51;50.26;97337.03;6810645;29;20211;-80
2021/01/24 20:00:39;;;;;;;6.57;4.83;;;;;;;5.74;49.55;97326.69;6810930;29;20244;-80
2021/01/24 20:04:01;;;;;;;6.43;5.00;;;;;;;5.55;50.00;97295.47;6811803;29;20207;-79
2021/01/24 20:07:23;;;;;;;9.97;5.00;;;;;;;5.56;49.79;97317.69;6811353;29;20291;-80
2021/01/24 20:10:45;;;;;;;5.20;4.70;;;;;;;5.52;49.73;97305.78;6810541;29;20284;-79
2021/01/24 20:14:07;;;;;;;6.87;5.23;;;;;;;5.23;50.28;97301.72;6810642;29;20239;-79
2021/01/24 20:17:28;;;;;;;5.93;5.30;;;;;;;5.37;50.69;97311.34;6811217;29;20669;-79
2021/01/24 20:20:49;;;;;;;7.30;6.60;;;;;;;5.37;50.77;97318.56;6810671;29;20239;-79
2021/01/24 20:24:11;;;;;;;8.20;6.17;;;;;;;5.26;50.64;97311.19;6811476;29;20208;-79
2021/01/24 20:27:32;;;;;;;7.70;5.13;;;;;;;5.11;50.93;97305.22;6810805;29;20215;-79
2021/01/24 20:30:54;;;;;;;5.80;5.03;;;;;;;5.27;51.13;97294.13;6809902;29;20238;-80